OZG weather

Zagora Airport
Zagora, Tiznit Province, Morocco

Public forecast

Using degrees Celsius for public forecast. Weather courtesy of forecast.io.

Closest aviation weather report (METAR) to Zagora Airport

Closest report is Ouarzazate Airport, 65.4 nm (121.2 km) NW. Retrieved 2020/01/23 07:00 UTC (35 minutes ago):

GMMZ 230700Z VRB01KT 9999 FEW030 02/M03 Q1019 NOSIG

Closest aviation forecast (TAF) to Zagora Airport

Closest forecast is Ouarzazate Airport, 65.4 nm (121.2 km) NW. Retrieved 2020/01/23 06:18 UTC (1 hour ago):

TAF GMMZ 230500Z 2306/2412 VRB02KT CAVOK